Clovis, CA (93612)

4:17 PM PDT on September 23, 2014 (GMT -0700)
Clovis East | Change Station
CLOSE
Current Station
Personal Weather Station
Location: Clovis, CA
Elevation: 387 ft
Nearby Weather Stations

Elev 387 ft 36.80 °N, 119.67 °W | Updated 4 minutes ago

Clear
Clear
93.9 °F
Feels Like 94 °F
N
2.0
Wind Variable Wind from West
Gusts 5.0 mph

Today
High -- | Low -- °F
--% Chance of Precip.
Yesterday
High -- | Low -- °F
Precip. -- in
6:47 AM 6:53 PM
Waning Crescent, 0% visible
Pressure 29.86 in
Visibility 10.0 miles
Clouds Clear
Heat Index 94 °F
Dew Point 59 °F
Humidity 32%
Rainfall 0.00 in
Snow Depth 0 in , 0 in , 0 in
UV 4 out of 12
Pollen 6.00 out of 12
Ozone Moderate
Flu Activity Not available.
METAR KFAT 232253Z 14004KT 10SM CLR 34/11 A2987 RMK AO2 SLP111 T03390111

More Conditions Fewer Conditions

Pressure 29.86 in
Visibility 10.0 miles
Clouds Clear
Heat Index 94 °F
Dew Point 59 °F
Humidity 32%
Rainfall 0.00 in
Snow Depth 0 in , 0 in , 0 in
UV 4 out of 12
Pollen 6.00 out of 12
Ozone Moderate
Flu Activity Not available.
METAR KFAT 232253Z 14004KT 10SM CLR 34/11 A2987 RMK AO2 SLP111 T03390111

More Conditions Fewer Conditions

10-Day Weather Forecast

Almanac

Astronomy

Sep. 23, 2014 Rise Set
Actual Time 6:47 AM PDT 6:53 PM PDT
Civil Twilight 6:21 AM PDT 7:19 PM PDT
Nautical Twilight 5:51 AM PDT 7:49 PM PDT
Astronomical Twilight 5:20 AM PDT 8:20 PM PDT
Moon 6:16 AM PDT 6:35 PM PDT
Length of Visible Light 12h 58m
Length of Day
12h 06m
Tomorrow will be 2m 20s shorter.
Waning Crescent, 0% of the Moon is Illuminated
Today
Waning Crescent
Sep 24
New
Oct 1
First Quarter
Oct 8
Full
Oct 15
Last Quarter

Today's Extremes

State Highs State Lows

Community

WunderPhotos

Upload Photos

1,755,824 photos uploaded!

WunderBlogs® & News

Nearby

Air Quality

  Air Quality AQ Index Pollutant
Yesterday Good
OZONE
Current Moderate
OZONE
Tuesday Moderate
OZONE
Wednesday Moderate
OZONE
Thursday Moderate
OZONE
Friday Moderate
OZONE
Saturday Moderate
OZONE

Snow Depth

Station Depth Elevation
Summit Meadow 0 in 9122 ft
Leavitt Meadows 0 in 7200 ft
CSS Lab 0 in 6900 ft
Adin Mountain 0 in 6200 ft

Earthquake Activity

City Distance Mag. Time & Date
No recent earthquake activity has been reported nearby.
Minimum magnitude displayed is 2.5.

Coastal Water Temperatures

Place Temperature
No Stations Reporting

Nearby Weather Stations